Time;durP1;ratioP1;P1;durP2;ratioP2;P2;SDS_P1;SDS_P2;PMS_P1;PMS_P2;Temp;Humidity;BMP_temperature;BMP_pressure;BME280_temperature;BME280_humidity;BME280_pressure;Samples;Min_cycle;Max_cycle;Signal;HPM_P1;HPM_P2
2021/09/22 00:02:06;;;;;;;37.88;21.60;;;;;;;;;;5048910;28;20057;-46
2021/09/22 00:04:32;;;;;;;25.15;14.43;;;;;;;;;;5052058;28;20477;-53
2021/09/22 00:06:58;;;;;;;34.45;21.85;;;;;;;;;;5053392;28;20033;-52
2021/09/22 00:09:24;;;;;;;22.85;15.27;;;;;;;;;;5053303;28;20060;-54
2021/09/22 00:11:51;;;;;;;30.55;17.10;;;;;;;;;;5053239;28;20033;-50
2021/09/22 00:14:17;;;;;;;24.50;16.45;;;;;;;;;;5053061;28;20473;-51
2021/09/22 00:16:43;;;;;;;28.08;16.73;;;;;;;;;;5053252;28;20075;-53
2021/09/22 00:19:09;;;;;;;19.85;13.63;;;;;;;;;;5053253;28;20029;-53
2021/09/22 00:21:35;;;;;;;37.08;21.42;;;;;;;;;;5053252;28;20096;-53
2021/09/22 00:24:02;;;;;;;35.95;20.60;;;;;;;;;;5053009;28;20036;-52
2021/09/22 00:26:28;;;;;;;26.95;17.38;;;;;;;;;;5053167;28;20025;-53
2021/09/22 00:28:55;;;;;;;27.25;17.98;;;;;;;;;;5053034;28;20029;-47
2021/09/22 00:31:21;;;;;;;23.33;15.02;;;;;;;;;;5053167;28;20477;-51
2021/09/22 00:33:47;;;;;;;22.92;15.45;;;;;;;;;;5053118;28;20369;-57
2021/09/22 00:36:13;;;;;;;20.13;12.98;;;;;;;;;;5053264;28;20040;-58
2021/09/22 00:38:40;;;;;;;23.27;15.13;;;;;;;;;;5053090;28;20518;-55
2021/09/22 00:41:06;;;;;;;17.25;11.68;;;;;;;;;;5053172;28;20035;-53
2021/09/22 00:43:32;;;;;;;22.45;13.38;;;;;;;;;;5052866;28;20473;-48
2021/09/22 00:46:04;;;;;;;29.20;16.35;;;;;;;;;;5052968;28;20048;-52
2021/09/22 00:48:31;;;;;;;12.43;8.70;;;;;;;;;;5052782;28;20021;-50
2021/09/22 00:50:57;;;;;;;45.85;26.73;;;;;;;;;;5052835;28;20040;-51
2021/09/22 00:53:23;;;;;;;44.00;24.70;;;;;;;;;;5052823;28;20021;-50
2021/09/22 00:55:51;;;;;;;36.08;20.25;;;;;;;;;;5052906;28;20048;-46
2021/09/22 00:58:17;;;;;;;16.52;11.18;;;;;;;;;;5052753;28;20485;-49
2021/09/22 01:00:43;;;;;;;31.58;19.15;;;;;;;;;;5052870;28;20025;-47
2021/09/22 01:03:09;;;;;;;35.78;21.30;;;;;;;;;;5053351;28;20028;-51
2021/09/22 01:05:38;;;;;;;48.55;27.52;;;;;;;;;;5056805;28;20433;-53
2021/09/22 01:08:05;;;;;;;32.00;16.58;;;;;;;;;;5056677;28;20118;-53
2021/09/22 01:10:34;;;;;;;33.28;21.05;;;;;;;;;;5056612;28;20021;-49
2021/09/22 01:13:00;;;;;;;22.52;15.82;;;;;;;;;;5056620;28;20055;-51
2021/09/22 01:15:27;;;;;;;21.15;12.43;;;;;;;;;;5056450;28;20488;-51
2021/09/22 01:17:53;;;;;;;18.77;11.85;;;;;;;;;;5056543;28;20472;-52
2021/09/22 01:20:19;;;;;;;23.75;14.00;;;;;;;;;;5056475;28;20056;-53
2021/09/22 01:22:46;;;;;;;11.35;8.98;;;;;;;;;;5056241;28;20029;-53
2021/09/22 01:25:12;;;;;;;21.02;12.93;;;;;;;;;;5056457;28;20033;-53
2021/09/22 01:27:49;;;;;;;20.75;13.98;;;;;;;;;;5056337;28;20385;-50
2021/09/22 01:30:16;;;;;;;17.45;9.18;;;;;;;;;;5056289;28;20021;-52
2021/09/22 01:32:53;;;;;;;25.90;14.60;;;;;;;;;;5056502;28;20021;-51
2021/09/22 01:35:20;;;;;;;16.58;10.30;;;;;;;;;;5056177;28;20048;-48
2021/09/22 01:37:46;;;;;;;11.90;9.13;;;;;;;;;;5056245;28;20021;-49
2021/09/22 01:40:13;;;;;;;20.20;11.50;;;;;;;;;;5056245;28;20049;-49
2021/09/22 01:42:39;;;;;;;18.95;11.07;;;;;;;;;;5056071;28;20053;-52
2021/09/22 01:45:09;;;;;;;21.98;11.40;;;;;;;;;;5056214;28;20382;-52
2021/09/22 01:47:35;;;;;;;15.50;10.65;;;;;;;;;;5056191;28;20469;-46
2021/09/22 01:50:23;;;;;;;18.50;11.50;;;;;;;;;;5056068;28;20021;-52
2021/09/22 01:52:50;;;;;;;16.45;10.68;;;;;;;;;;5055895;28;20020;-46
2021/09/22 01:55:17;;;;;;;16.65;11.32;;;;;;;;;;5055800;28;20064;-52
2021/09/22 01:57:43;;;;;;;17.83;9.85;;;;;;;;;;5055873;28;20032;-50
2021/09/22 02:00:09;;;;;;;15.52;10.32;;;;;;;;;;5055674;28;20025;-51
2021/09/22 02:02:36;;;;;;;16.85;10.15;;;;;;;;;;5055974;28;20197;-52
2021/09/22 02:05:02;;;;;;;18.17;10.77;;;;;;;;;;5055839;28;20036;-52
2021/09/22 02:07:28;;;;;;;13.30;9.23;;;;;;;;;;5055575;28;20028;-47
2021/09/22 02:09:55;;;;;;;15.02;9.90;;;;;;;;;;5055957;28;20025;-52
2021/09/22 02:12:21;;;;;;;13.05;8.90;;;;;;;;;;5055919;28;20025;-46
2021/09/22 02:14:47;;;;;;;13.43;8.82;;;;;;;;;;5054990;28;20120;-50
2021/09/22 02:17:13;;;;;;;13.73;9.32;;;;;;;;;;5055572;28;20021;-52
2021/09/22 02:19:39;;;;;;;17.38;10.45;;;;;;;;;;5055446;28;20032;-52
2021/09/22 02:22:05;;;;;;;19.77;11.20;;;;;;;;;;5055340;28;20099;-50
2021/09/22 02:24:31;;;;;;;13.02;8.80;;;;;;;;;;5055259;28;20084;-50
2021/09/22 02:26:57;;;;;;;12.55;9.50;;;;;;;;;;5055322;28;20100;-45
2021/09/22 02:29:25;;;;;;;14.20;9.65;;;;;;;;;;5055286;28;20029;-51
2021/09/22 02:31:51;;;;;;;16.73;9.65;;;;;;;;;;5055513;28;20017;-52
2021/09/22 02:34:17;;;;;;;13.52;9.82;;;;;;;;;;5054994;28;20025;-46
2021/09/22 02:36:43;;;;;;;14.27;8.48;;;;;;;;;;5055142;28;20033;-52
2021/09/22 02:39:10;;;;;;;13.63;9.30;;;;;;;;;;5055298;28;20027;-48
2021/09/22 02:41:36;;;;;;;16.20;10.13;;;;;;;;;;5054977;28;20031;-50
2021/09/22 02:44:03;;;;;;;16.98;9.70;;;;;;;;;;5054877;28;20492;-51
2021/09/22 02:46:29;;;;;;;13.70;9.98;;;;;;;;;;5054924;28;20120;-49
2021/09/22 02:48:55;;;;;;;11.38;8.65;;;;;;;;;;5054809;28;20021;-52
2021/09/22 02:51:21;;;;;;;11.45;8.70;;;;;;;;;;5054946;28;20095;-52
2021/09/22 02:53:47;;;;;;;13.65;8.73;;;;;;;;;;5054516;28;20064;-55
2021/09/22 02:56:14;;;;;;;13.98;8.82;;;;;;;;;;5053582;28;20504;-51
2021/09/22 02:58:40;;;;;;;10.65;8.00;;;;;;;;;;5054913;28;20028;-50
2021/09/22 03:01:06;;;;;;;10.95;8.40;;;;;;;;;;5054536;28;20037;-51
2021/09/22 03:03:32;;;;;;;13.38;8.23;;;;;;;;;;5054488;28;20033;-53
2021/09/22 03:06:00;;;;;;;11.52;8.40;;;;;;;;;;5054454;28;20262;-54
2021/09/22 03:08:26;;;;;;;13.07;8.80;;;;;;;;;;5054590;28;20025;-54
2021/09/22 03:10:52;;;;;;;12.23;8.68;;;;;;;;;;5054692;28;20112;-48
2021/09/22 03:13:19;;;;;;;15.60;8.68;;;;;;;;;;5054466;28;20059;-51
2021/09/22 03:15:45;;;;;;;11.48;8.48;;;;;;;;;;5054310;28;20377;-53
2021/09/22 03:18:11;;;;;;;13.35;9.25;;;;;;;;;;5054435;28;20503;-52
2021/09/22 03:20:37;;;;;;;13.23;8.15;;;;;;;;;;5054259;28;20029;-52
2021/09/22 03:23:03;;;;;;;11.63;8.68;;;;;;;;;;5054002;28;20029;-54
2021/09/22 03:25:29;;;;;;;10.90;8.77;;;;;;;;;;5054185;28;20033;-53
2021/09/22 03:27:55;;;;;;;15.13;9.45;;;;;;;;;;5053191;28;20029;-54
2021/09/22 03:30:24;;;;;;;16.95;9.90;;;;;;;;;;5053991;28;20033;-54
2021/09/22 03:32:50;;;;;;;16.50;9.68;;;;;;;;;;5054017;28;20100;-51
2021/09/22 03:35:16;;;;;;;13.88;9.32;;;;;;;;;;5052765;28;20040;-53
2021/09/22 03:37:42;;;;;;;15.63;9.57;;;;;;;;;;5053723;28;20029;-52
2021/09/22 03:40:08;;;;;;;13.57;9.30;;;;;;;;;;5054075;28;20104;-51
2021/09/22 03:42:34;;;;;;;12.93;9.07;;;;;;;;;;5053958;28;20086;-51
2021/09/22 03:45:00;;;;;;;14.77;9.82;;;;;;;;;;5053780;28;20049;-51
2021/09/22 03:47:29;;;;;;;15.40;9.15;;;;;;;;;;5053798;28;20025;-49
2021/09/22 03:49:58;;;;;;;14.43;9.60;;;;;;;;;;5053895;28;20401;-47
2021/09/22 03:52:26;;;;;;;20.02;9.48;;;;;;;;;;5053612;28;20100;-51
2021/09/22 03:54:52;;;;;;;14.93;9.75;;;;;;;;;;5053437;28;20495;-54
2021/09/22 03:57:18;;;;;;;12.52;9.55;;;;;;;;;;5053816;28;20025;-50
2021/09/22 03:59:44;;;;;;;12.55;8.77;;;;;;;;;;5053556;28;20036;-54
2021/09/22 04:02:10;;;;;;;15.25;9.30;;;;;;;;;;5053619;28;20091;-51
2021/09/22 04:04:36;;;;;;;12.68;9.05;;;;;;;;;;5053364;28;20100;-51
2021/09/22 04:07:03;;;;;;;16.15;9.55;;;;;;;;;;5053459;28;20064;-51
2021/09/22 04:09:29;;;;;;;14.60;8.95;;;;;;;;;;5053269;28;20410;-54
2021/09/22 04:11:55;;;;;;;13.93;8.80;;;;;;;;;;5053570;28;20061;-46
2021/09/22 04:14:21;;;;;;;14.93;8.80;;;;;;;;;;5053236;28;20037;-54
2021/09/22 04:16:47;;;;;;;15.25;8.77;;;;;;;;;;5053211;28;20035;-54
2021/09/22 04:19:13;;;;;;;13.57;9.05;;;;;;;;;;5053358;28;20381;-54
2021/09/22 04:21:39;;;;;;;12.23;8.45;;;;;;;;;;5053272;28;20024;-48
2021/09/22 04:24:06;;;;;;;17.05;10.05;;;;;;;;;;5052901;28;20052;-53
2021/09/22 04:26:32;;;;;;;16.45;9.18;;;;;;;;;;5053346;28;20374;-50
2021/09/22 04:28:58;;;;;;;14.02;9.27;;;;;;;;;;5053252;28;20021;-54
2021/09/22 04:31:24;;;;;;;12.52;8.35;;;;;;;;;;5053066;28;20032;-53
2021/09/22 04:33:50;;;;;;;13.10;8.77;;;;;;;;;;5052997;28;20025;-52
2021/09/22 04:36:16;;;;;;;13.30;9.23;;;;;;;;;;5053221;28;20120;-55
2021/09/22 04:38:42;;;;;;;16.30;9.35;;;;;;;;;;5054789;28;20029;-51
2021/09/22 04:41:09;;;;;;;12.90;9.23;;;;;;;;;;5059970;28;20091;-51
2021/09/22 04:43:35;;;;;;;13.43;9.27;;;;;;;;;;5059620;28;20025;-53
2021/09/22 04:46:01;;;;;;;11.50;8.43;;;;;;;;;;5059611;28;20444;-54
2021/09/22 04:48:27;;;;;;;16.67;10.13;;;;;;;;;;5059903;28;20029;-51
2021/09/22 04:50:54;;;;;;;26.40;17.23;;;;;;;;;;5059750;28;20025;-53
2021/09/22 04:53:21;;;;;;;31.40;16.02;;;;;;;;;;5059497;28;20108;-53
2021/09/22 04:55:47;;;;;;;37.05;21.38;;;;;;;;;;5059508;28;20037;-53
2021/09/22 04:58:13;;;;;;;19.02;11.30;;;;;;;;;;5059741;28;20021;-53
2021/09/22 05:00:40;;;;;;;21.05;11.15;;;;;;;;;;5059008;28;20065;-53
2021/09/22 05:03:06;;;;;;;23.38;11.65;;;;;;;;;;5056309;28;20045;-52
2021/09/22 05:05:33;;;;;;;14.88;10.30;;;;;;;;;;5059140;28;20037;-51
2021/09/22 05:08:02;;;;;;;27.90;14.63;;;;;;;;;;5059217;28;20025;-51
2021/09/22 05:10:28;;;;;;;33.67;18.80;;;;;;;;;;5059396;28;20017;-51
2021/09/22 05:12:55;;;;;;;20.23;11.13;;;;;;;;;;5059695;28;20025;-49
2021/09/22 05:15:21;;;;;;;17.48;9.38;;;;;;;;;;5059434;28;20033;-53
2021/09/22 05:17:47;;;;;;;12.85;9.98;;;;;;;;;;5059488;28;20384;-57
2021/09/22 05:20:13;;;;;;;16.10;10.68;;;;;;;;;;5059493;28;20025;-49
2021/09/22 05:22:39;;;;;;;15.18;9.63;;;;;;;;;;5059399;28;20025;-52
2021/09/22 05:25:05;;;;;;;17.80;9.57;;;;;;;;;;5059633;28;20044;-51
2021/09/22 05:27:32;;;;;;;21.00;11.18;;;;;;;;;;5059609;28;20053;-49
2021/09/22 05:29:58;;;;;;;25.13;13.88;;;;;;;;;;5059374;28;20466;-46
2021/09/22 05:32:24;;;;;;;19.08;10.93;;;;;;;;;;5059251;28;20427;-48
2021/09/22 05:34:51;;;;;;;12.90;8.45;;;;;;;;;;5059204;28;20037;-53
2021/09/22 05:37:17;;;;;;;16.50;9.30;;;;;;;;;;5059310;28;20535;-53
2021/09/22 05:39:43;;;;;;;13.30;8.10;;;;;;;;;;5059153;28;20112;-55
2021/09/22 05:42:09;;;;;;;15.85;9.75;;;;;;;;;;5059223;28;20099;-50
2021/09/22 05:44:36;;;;;;;15.57;9.10;;;;;;;;;;5051071;28;20040;-51
2021/09/22 05:47:02;;;;;;;13.82;8.40;;;;;;;;;;5058111;28;20029;-51
2021/09/22 05:49:28;;;;;;;15.00;8.63;;;;;;;;;;5058099;28;20040;-51
2021/09/22 05:51:54;;;;;;;13.82;9.52;;;;;;;;;;5055539;28;20036;-48
2021/09/22 05:54:23;;;;;;;18.52;10.07;;;;;;;;;;5055694;28;20032;-47
2021/09/22 05:56:49;;;;;;;19.00;11.40;;;;;;;;;;5055763;28;20483;-43
2021/09/22 05:59:15;;;;;;;22.88;13.32;;;;;;;;;;5055791;28;20029;-49
2021/09/22 06:01:41;;;;;;;17.80;10.00;;;;;;;;;;5056053;28;20025;-56
2021/09/22 06:04:08;;;;;;;14.60;9.65;;;;;;;;;;5055606;28;20029;-50
2021/09/22 06:06:34;;;;;;;25.58;12.65;;;;;;;;;;5055721;28;20064;-53
2021/09/22 06:09:03;;;;;;;26.75;15.55;;;;;;;;;;5055489;28;20120;-53
2021/09/22 06:11:29;;;;;;;17.77;9.68;;;;;;;;;;5055593;28;20024;-51
2021/09/22 06:13:55;;;;;;;21.70;11.18;;;;;;;;;;5055659;28;20031;-53
2021/09/22 06:16:22;;;;;;;15.65;9.25;;;;;;;;;;5055612;28;20029;-54
2021/09/22 06:18:50;;;;;;;24.85;13.52;;;;;;;;;;5055693;28;20040;-53
2021/09/22 06:21:16;;;;;;;32.63;16.40;;;;;;;;;;5055494;28;20036;-51
2021/09/22 06:23:43;;;;;;;28.88;15.25;;;;;;;;;;5055105;28;20055;-52
2021/09/22 06:26:09;;;;;;;31.65;15.50;;;;;;;;;;5055328;28;20098;-51
2021/09/22 06:28:35;;;;;;;28.90;14.93;;;;;;;;;;5055188;28;20083;-53
2021/09/22 06:31:02;;;;;;;21.52;11.50;;;;;;;;;;5055159;28;20029;-53
2021/09/22 06:33:28;;;;;;;15.38;9.63;;;;;;;;;;5055156;28;20123;-49
2021/09/22 06:36:00;;;;;;;18.13;9.20;;;;;;;;;;5055165;28;20405;-54
2021/09/22 06:38:27;;;;;;;15.45;9.73;;;;;;;;;;5054921;28;20048;-50
2021/09/22 06:40:54;;;;;;;20.60;10.13;;;;;;;;;;5055029;28;20075;-56
2021/09/22 06:43:22;;;;;;;20.33;11.20;;;;;;;;;;5055187;28;20461;-54
2021/09/22 06:45:48;;;;;;;16.83;8.60;;;;;;;;;;5055098;28;20488;-55
2021/09/22 06:48:16;;;;;;;18.73;10.30;;;;;;;;;;5055048;28;20027;-51
2021/09/22 06:50:45;;;;;;;20.90;10.90;;;;;;;;;;5054983;28;20145;-54
2021/09/22 06:53:11;;;;;;;15.82;9.32;;;;;;;;;;5054755;28;20021;-55
2021/09/22 06:55:37;;;;;;;14.43;9.63;;;;;;;;;;5054935;28;20037;-50
2021/09/22 06:58:03;;;;;;;15.20;9.65;;;;;;;;;;5055085;28;20063;-53
2021/09/22 07:00:35;;;;;;;16.60;10.27;;;;;;;;;;5054623;28;20025;-55
2021/09/22 07:03:02;;;;;;;15.90;9.77;;;;;;;;;;5054182;28;20035;-50
2021/09/22 07:05:28;;;;;;;26.10;11.90;;;;;;;;;;5054717;28;20121;-52
2021/09/22 07:07:55;;;;;;;24.48;13.50;;;;;;;;;;5054448;28;20017;-54
2021/09/22 07:10:23;;;;;;;22.13;11.38;;;;;;;;;;5054566;28;20024;-56
2021/09/22 07:12:52;;;;;;;24.25;12.70;;;;;;;;;;5054651;28;20047;-54
2021/09/22 07:15:18;;;;;;;17.80;10.77;;;;;;;;;;5054198;28;20056;-54
2021/09/22 07:17:44;;;;;;;25.55;15.20;;;;;;;;;;5053031;28;20037;-55
2021/09/22 07:20:10;;;;;;;19.42;9.82;;;;;;;;;;5054392;28;20017;-55
2021/09/22 07:22:37;;;;;;;20.48;12.25;;;;;;;;;;5054159;28;20476;-55
2021/09/22 07:25:03;;;;;;;17.13;11.05;;;;;;;;;;5054016;28;20041;-54
2021/09/22 07:27:29;;;;;;;21.23;11.60;;;;;;;;;;5054140;28;20023;-52
2021/09/22 07:29:58;;;;;;;29.35;17.45;;;;;;;;;;5054267;28;20021;-51
2021/09/22 07:32:24;;;;;;;19.02;9.20;;;;;;;;;;5054022;28;20562;-54
2021/09/22 07:34:50;;;;;;;16.58;8.90;;;;;;;;;;5053901;28;20131;-54
2021/09/22 07:37:18;;;;;;;40.97;21.75;;;;;;;;;;5054159;28;20059;-55
2021/09/22 07:39:45;;;;;;;15.90;10.38;;;;;;;;;;5053919;28;20033;-54
2021/09/22 07:42:12;;;;;;;19.65;11.02;;;;;;;;;;5054022;28;20025;-55
2021/09/22 07:44:39;;;;;;;16.08;9.63;;;;;;;;;;5053946;28;20045;-54
2021/09/22 07:47:06;;;;;;;17.02;9.70;;;;;;;;;;5053892;28;20388;-51
2021/09/22 07:49:32;;;;;;;14.30;9.40;;;;;;;;;;5053646;28;20032;-50
2021/09/22 07:52:00;;;;;;;19.65;11.60;;;;;;;;;;5053697;28;20033;-54
2021/09/22 07:54:26;;;;;;;25.13;13.43;;;;;;;;;;5053817;28;20061;-54
2021/09/22 07:56:53;;;;;;;18.10;10.00;;;;;;;;;;5053669;28;20108;-54
2021/09/22 07:59:21;;;;;;;19.67;11.13;;;;;;;;;;5053796;28;20095;-53
2021/09/22 08:01:47;;;;;;;23.15;13.70;;;;;;;;;;5053686;28;20029;-56
2021/09/22 08:04:14;;;;;;;24.77;12.90;;;;;;;;;;5053664;28;20108;-56
2021/09/22 08:06:41;;;;;;;24.25;13.70;;;;;;;;;;5053608;28;20040;-55
2021/09/22 08:09:09;;;;;;;31.23;12.10;;;;;;;;;;5053537;28;20109;-55
2021/09/22 08:11:35;;;;;;;28.73;17.20;;;;;;;;;;5053470;28;20027;-58
2021/09/22 08:14:01;;;;;;;124.82;64.07;;;;;;;;;;5052866;28;20021;-45
2021/09/22 08:16:27;;;;;;;64.53;35.70;;;;;;;;;;5053279;28;20037;-60
2021/09/22 08:18:56;;;;;;;27.00;15.43;;;;;;;;;;5053411;28;20017;-47
2021/09/22 08:21:22;;;;;;;35.85;17.20;;;;;;;;;;5053162;28;20023;-57
2021/09/22 08:23:50;;;;;;;34.95;19.88;;;;;;;;;;5053200;28;20432;-50
2021/09/22 08:26:16;;;;;;;35.45;18.98;;;;;;;;;;5053253;28;20021;-56
2021/09/22 08:28:42;;;;;;;42.13;22.33;;;;;;;;;;5053225;28;20029;-59
2021/09/22 08:31:11;;;;;;;34.08;19.77;;;;;;;;;;5053322;28;20025;-42
2021/09/22 08:33:37;;;;;;;22.77;13.65;;;;;;;;;;5053102;28;20032;-56
2021/09/22 08:36:03;;;;;;;46.10;24.67;;;;;;;;;;5053110;28;20037;-53
2021/09/22 08:38:29;;;;;;;36.13;21.13;;;;;;;;;;5053308;28;20372;-53
2021/09/22 08:40:55;;;;;;;42.00;22.90;;;;;;;;;;5053145;28;20032;-54
2021/09/22 08:43:25;;;;;;;61.08;29.88;;;;;;;;;;5053075;28;20025;-54
2021/09/22 08:45:51;;;;;;;16.88;10.65;;;;;;;;;;5053237;28;20037;-45
2021/09/22 08:48:18;;;;;;;47.47;14.63;;;;;;;;;;5053244;28;20052;-54
2021/09/22 08:50:44;;;;;;;51.60;13.52;;;;;;;;;;5053066;28;20025;-53
2021/09/22 08:53:10;;;;;;;11.57;6.93;;;;;;;;;;5053188;28;20406;-53
2021/09/22 08:55:36;;;;;;;12.60;6.82;;;;;;;;;;5053075;28;20029;-54
2021/09/22 08:58:03;;;;;;;13.48;7.13;;;;;;;;;;5053176;28;20021;-46
2021/09/22 09:00:29;;;;;;;10.68;5.60;;;;;;;;;;5053510;28;20056;-54
2021/09/22 09:02:55;;;;;;;12.93;6.18;;;;;;;;;;5053083;28;20020;-50
2021/09/22 09:05:22;;;;;;;9.75;5.50;;;;;;;;;;5053226;28;20052;-56
2021/09/22 09:07:48;;;;;;;7.72;5.63;;;;;;;;;;5052935;28;20021;-56
2021/09/22 09:10:14;;;;;;;12.48;6.65;;;;;;;;;;5052941;28;20064;-56
2021/09/22 09:12:40;;;;;;;10.85;6.45;;;;;;;;;;5053151;28;20033;-55
2021/09/22 09:15:11;;;;;;;25.23;10.27;;;;;;;;;;5052856;28;20040;-55
2021/09/22 09:17:45;;;;;;;14.05;8.15;;;;;;;;;;5052758;28;20029;-55
2021/09/22 09:20:22;;;;;;;15.70;8.88;;;;;;;;;;5052792;28;20388;-54
2021/09/22 09:22:54;;;;;;;13.48;8.57;;;;;;;;;;5052871;28;20025;-56
2021/09/22 09:25:28;;;;;;;20.15;8.23;;;;;;;;;;5053613;28;20032;-54
2021/09/22 09:27:54;;;;;;;11.63;6.82;;;;;;;;;;5056528;28;20048;-52
2021/09/22 09:30:22;;;;;;;16.38;6.85;;;;;;;;;;5056904;28;20025;-55
2021/09/22 09:32:48;;;;;;;18.38;11.10;;;;;;;;;;5056231;28;20138;-52
2021/09/22 09:35:15;;;;;;;42.38;27.00;;;;;;;;;;5056334;28;20110;-50
2021/09/22 09:37:43;;;;;;;82.63;43.00;;;;;;;;;;5056324;28;20020;-48
2021/09/22 09:40:16;;;;;;;49.42;28.35;;;;;;;;;;5055011;28;20028;-51
2021/09/22 09:42:43;;;;;;;44.83;26.83;;;;;;;;;;5056262;28;20022;-54
2021/09/22 09:45:10;;;;;;;50.10;29.15;;;;;;;;;;5056249;28;20488;-51
2021/09/22 09:47:38;;;;;;;34.90;19.67;;;;;;;;;;5056078;28;20025;-46
2021/09/22 09:50:18;;;;;;;33.95;15.45;;;;;;;;;;5056123;28;20039;-49
2021/09/22 09:53:00;;;;;;;26.83;12.52;;;;;;;;;;5055992;28;20021;-53
2021/09/22 09:55:27;;;;;;;21.73;11.05;;;;;;;;;;5056026;28;20037;-54
2021/09/22 09:57:55;;;;;;;19.55;11.05;;;;;;;;;;5055954;28;20027;-55
2021/09/22 10:00:23;;;;;;;16.25;10.35;;;;;;;;;;5055941;28;20035;-51
2021/09/22 10:02:50;;;;;;;62.55;36.55;;;;;;;;;;5055794;28;20024;-49
2021/09/22 10:05:16;;;;;;;36.90;22.58;;;;;;;;;;5055999;28;20489;-55
2021/09/22 10:07:45;;;;;;;27.27;17.58;;;;;;;;;;5055836;28;20491;-56
2021/09/22 10:10:11;;;;;;;23.90;16.50;;;;;;;;;;5055845;28;20069;-52
2021/09/22 10:12:38;;;;;;;60.03;29.70;;;;;;;;;;5055633;28;20031;-53
2021/09/22 10:15:05;;;;;;;21.50;14.05;;;;;;;;;;5055451;28;20071;-53
2021/09/22 10:17:32;;;;;;;28.35;14.73;;;;;;;;;;5055087;28;20029;-54
2021/09/22 10:19:59;;;;;;;38.97;24.02;;;;;;;;;;5055023;28;20029;-48
2021/09/22 10:22:26;;;;;;;29.80;18.83;;;;;;;;;;5055019;28;20036;-57
2021/09/22 10:24:52;;;;;;;39.35;19.55;;;;;;;;;;5054736;28;20056;-49
2021/09/22 10:27:20;;;;;;;81.82;41.75;;;;;;;;;;5054676;28;20423;-51
2021/09/22 10:29:52;;;;;;;54.13;26.90;;;;;;;;;;5054884;28;20056;-54
2021/09/22 10:32:56;;;;;;;62.40;36.58;;;;;;;;;;5055271;28;20025;-56
2021/09/22 10:35:25;;;;;;;28.77;17.85;;;;;;;;;;5033247;28;20037;-51
2021/09/22 10:37:56;;;;;;;53.15;32.03;;;;;;;;;;5032631;28;20037;-54
2021/09/22 10:40:34;;;;;;;47.10;27.15;;;;;;;;;;5033223;28;20044;-53
2021/09/22 10:43:15;;;;;;;32.65;20.40;;;;;;;;;;5033097;28;20033;-51
2021/09/22 10:46:02;;;;;;;32.40;20.25;;;;;;;;;;5033101;28;20067;-49
2021/09/22 10:48:28;;;;;;;80.20;47.20;;;;;;;;;;5022763;28;20045;-55
2021/09/22 10:51:04;;;;;;;62.17;36.35;;;;;;;;;;5032911;28;20032;-55
2021/09/22 10:53:33;;;;;;;44.03;27.45;;;;;;;;;;5032825;28;20038;-57
2021/09/22 10:56:01;;;;;;;34.08;18.67;;;;;;;;;;5032667;28;20355;-55
2021/09/22 10:58:34;;;;;;;28.88;18.13;;;;;;;;;;5032671;28;20017;-52
2021/09/22 11:01:00;;;;;;;25.20;14.82;;;;;;;;;;5032742;28;20116;-56
2021/09/22 11:03:44;;;;;;;23.33;14.40;;;;;;;;;;5031942;28;20022;-57
2021/09/22 11:06:29;;;;;;;77.03;38.00;;;;;;;;;;5041527;28;20049;-57
2021/09/22 11:09:07;;;;;;;41.88;21.15;;;;;;;;;;5052963;28;20106;-52
2021/09/22 11:11:52;;;;;;;44.35;20.17;;;;;;;;;;5052593;28;20029;-60
2021/09/22 11:14:30;;;;;;;31.55;15.55;;;;;;;;;;5053293;28;20025;-55
2021/09/22 11:17:02;;;;;;;24.98;15.38;;;;;;;;;;5052981;28;20052;-54
2021/09/22 11:19:29;;;;;;;45.05;26.92;;;;;;;;;;5051532;28;20025;-54
2021/09/22 11:21:56;;;;;;;81.93;46.00;;;;;;;;;;5053893;28;20017;-56
2021/09/22 11:24:27;;;;;;;155.70;84.03;;;;;;;;;;5053564;28;20087;-56
2021/09/22 11:26:54;;;;;;;79.90;44.22;;;;;;;;;;5052469;28;20021;-55
2021/09/22 11:29:39;;;;;;;46.08;26.13;;;;;;;;;;5053812;28;20017;-59
2021/09/22 11:32:08;;;;;;;48.42;28.17;;;;;;;;;;5053487;28;20086;-53
2021/09/22 11:34:39;;;;;;;47.67;28.35;;;;;;;;;;5053331;28;20097;-54
2021/09/22 11:37:10;;;;;;;29.27;18.15;;;;;;;;;;5051380;28;20451;-50
2021/09/22 11:39:37;;;;;;;49.25;29.35;;;;;;;;;;5053722;28;20028;-51
2021/09/22 11:42:07;;;;;;;53.65;32.35;;;;;;;;;;5050822;28;20031;-52
2021/09/22 11:44:34;;;;;;;63.45;38.15;;;;;;;;;;5053361;28;20013;-48
2021/09/22 11:47:04;;;;;;;31.90;20.77;;;;;;;;;;5052910;28;20028;-53
2021/09/22 11:49:31;;;;;;;69.97;37.35;;;;;;;;;;5052515;28;20021;-54
2021/09/22 11:52:09;;;;;;;56.38;30.17;;;;;;;;;;5053331;28;20142;-53
2021/09/22 11:54:35;;;;;;;35.28;21.98;;;;;;;;;;5053355;28;20067;-52
2021/09/22 11:57:05;;;;;;;45.53;28.08;;;;;;;;;;5053130;28;20033;-53
2021/09/22 11:59:35;;;;;;;26.13;17.20;;;;;;;;;;5053110;28;20025;-49
2021/09/22 12:02:01;;;;;;;23.83;15.93;;;;;;;;;;5053027;28;20104;-51
2021/09/22 12:04:33;;;;;;;33.40;20.13;;;;;;;;;;5053130;28;20025;-53
2021/09/22 12:07:00;;;;;;;68.40;39.53;;;;;;;;;;5051398;28;20033;-52
2021/09/22 12:09:28;;;;;;;26.88;14.98;;;;;;;;;;5053012;28;20071;-51
2021/09/22 12:12:21;;;;;;;18.90;13.68;;;;;;;;;;5053093;28;20017;-53
2021/09/22 12:14:54;;;;;;;28.23;16.92;;;;;;;;;;5050843;28;20041;-51
2021/09/22 12:17:21;;;;;;;17.23;12.65;;;;;;;;;;5053348;28;20064;-51
2021/09/22 12:19:48;;;;;;;35.40;23.88;;;;;;;;;;5053590;28;20058;-50
2021/09/22 12:22:15;;;;;;;36.60;22.38;;;;;;;;;;5053397;28;20048;-54
2021/09/22 12:24:43;;;;;;;24.95;16.38;;;;;;;;;;5053203;28;20110;-55
2021/09/22 12:27:14;;;;;;;31.83;19.10;;;;;;;;;;5053420;28;20029;-55
2021/09/22 12:29:55;;;;;;;26.90;16.95;;;;;;;;;;5053369;28;20060;-50
2021/09/22 12:32:23;;;;;;;28.90;17.98;;;;;;;;;;5053513;28;20056;-53
2021/09/22 12:34:49;;;;;;;55.40;30.95;;;;;;;;;;5052680;28;20032;-52
2021/09/22 12:37:17;;;;;;;49.05;29.63;;;;;;;;;;5053417;28;20056;-53
2021/09/22 12:39:56;;;;;;;39.30;23.90;;;;;;;;;;5053100;28;20017;-52
2021/09/22 12:42:23;;;;;;;48.60;26.85;;;;;;;;;;5053195;28;20074;-53
2021/09/22 12:45:02;;;;;;;35.92;21.92;;;;;;;;;;5053131;28;20044;-53
2021/09/22 12:47:30;;;;;;;32.13;21.40;;;;;;;;;;5053062;28;20032;-52
2021/09/22 12:50:03;;;;;;;31.52;21.30;;;;;;;;;;5053153;28;20025;-49
2021/09/22 12:52:29;;;;;;;42.90;26.23;;;;;;;;;;5053011;28;20395;-49
2021/09/22 12:54:55;;;;;;;50.25;26.42;;;;;;;;;;5052984;28;20028;-53
2021/09/22 12:57:24;;;;;;;35.28;19.98;;;;;;;;;;5052990;28;20075;-50
2021/09/22 12:59:50;;;;;;;51.75;28.23;;;;;;;;;;5054768;28;20021;-52
2021/09/22 13:02:22;;;;;;;70.85;41.58;;;;;;;;;;5056975;28;20025;-53
2021/09/22 13:04:49;;;;;;;60.13;33.00;;;;;;;;;;5056706;28;20492;-50
2021/09/22 13:07:22;;;;;;;57.05;33.92;;;;;;;;;;5056983;28;20086;-51
2021/09/22 13:09:48;;;;;;;34.58;21.90;;;;;;;;;;5057128;28;20120;-50
2021/09/22 13:12:30;;;;;;;23.60;15.80;;;;;;;;;;5057066;28;20385;-52
2021/09/22 13:14:57;;;;;;;31.10;19.17;;;;;;;;;;5056724;28;20029;-52
2021/09/22 13:17:23;;;;;;;26.67;17.75;;;;;;;;;;5056855;28;20039;-49
2021/09/22 13:19:49;;;;;;;25.42;16.65;;;;;;;;;;5056621;28;20025;-51
2021/09/22 13:22:15;;;;;;;43.58;24.73;;;;;;;;;;5056650;28;20075;-49
2021/09/22 13:24:43;;;;;;;27.77;16.88;;;;;;;;;;5056555;28;20080;-52
2021/09/22 13:27:10;;;;;;;33.72;20.85;;;;;;;;;;5056519;28;20035;-51
2021/09/22 13:29:36;;;;;;;25.30;16.73;;;;;;;;;;5056444;28;20107;-50
2021/09/22 13:32:04;;;;;;;34.13;18.30;;;;;;;;;;5055838;28;20013;-49
2021/09/22 13:34:30;;;;;;;34.00;19.05;;;;;;;;;;5054842;28;20029;-51
2021/09/22 13:36:59;;;;;;;35.20;19.48;;;;;;;;;;5053062;28;20481;-52
2021/09/22 13:39:25;;;;;;;28.75;17.73;;;;;;;;;;5056629;28;20017;-50
2021/09/22 13:41:52;;;;;;;42.80;22.15;;;;;;;;;;5056253;28;20052;-51
2021/09/22 13:44:18;;;;;;;39.63;20.25;;;;;;;;;;5056216;28;20028;-52
2021/09/22 13:46:48;;;;;;;29.85;16.67;;;;;;;;;;5056178;28;20033;-49
2021/09/22 13:49:15;;;;;;;32.03;17.75;;;;;;;;;;5055452;28;20519;-50
2021/09/22 13:51:42;;;;;;;20.70;13.77;;;;;;;;;;5056076;28;20033;-51
2021/09/22 13:54:08;;;;;;;23.48;14.43;;;;;;;;;;5055991;28;20032;-53
2021/09/22 13:56:37;;;;;;;21.17;14.02;;;;;;;;;;5055926;28;20045;-50
2021/09/22 13:59:03;;;;;;;25.27;15.05;;;;;;;;;;5055953;28;20028;-49
2021/09/22 14:01:30;;;;;;;27.85;16.60;;;;;;;;;;5055839;28;20104;-49
2021/09/22 14:03:56;;;;;;;25.05;16.38;;;;;;;;;;5055608;28;20029;-49
2021/09/22 14:06:22;;;;;;;43.67;25.58;;;;;;;;;;5056024;28;20033;-51
2021/09/22 14:08:48;;;;;;;47.95;25.73;;;;;;;;;;5055779;28;20028;-54
2021/09/22 14:11:16;;;;;;;29.70;20.13;;;;;;;;;;5054726;28;20435;-51
2021/09/22 14:13:42;;;;;;;34.67;22.02;;;;;;;;;;5055776;28;20017;-53
2021/09/22 14:16:08;;;;;;;32.38;20.45;;;;;;;;;;5055629;28;20060;-48
2021/09/22 14:18:35;;;;;;;75.10;39.60;;;;;;;;;;5055550;28;20070;-49
2021/09/22 14:21:03;;;;;;;53.08;29.67;;;;;;;;;;5055633;28;20032;-52
2021/09/22 14:23:29;;;;;;;39.40;20.02;;;;;;;;;;5055324;28;20120;-51
2021/09/22 14:25:56;;;;;;;49.47;28.83;;;;;;;;;;5055471;28;20465;-48